<?xml version='1.0' encoding='utf-8'?>
<gpx xmlns="http://www.topografix.com/GPX/1/1" xmlns:xsi="http://www.w3.org/2001/XMLSchema-instance" version="v1.1.5" creator="iTravel Tech Inc. - http://www.itravel-tech.com" xsi:schemaLocation="http://www.topografix.com/GPX/1/1 http://www.topografix.com/GPX/1/1/gpx.xsd http://www.topografix.com/GPX/gpx_overlay/0/3 http://www.topografix.com/GPX/gpx_overlay/0/3/gpx_overlay.xsd http://www.topografix.com/GPX/gpx_modified/0/1 http://www.topografix.com/GPX/gpx_modified/0/1/gpx_modified.xsd">
<trk>
<name>Holux2011/04/22_04:28</name>
<trkseg>
<trkpt lat="22.491583" lon="103.978821">
<ele>94.1</ele>
<time>2011-04-22T01:28:25Z</time>
<desc>lat.=22.491583, lon.=103.978821, Alt.=178.021606m. Speed=0.360000m/h.</desc>
<speed>0.100000</speed>
</trkpt>
<trkpt lat="22.491865" lon="103.978897">
<ele>93.0</ele>
<time>2011-04-22T01:28:30Z</time>
<desc>lat.=22.491865, lon.=103.978897, Alt.=109.186584m. Speed=0.036000m/h.</desc>
<speed>0.010000</speed>
</trkpt>
<trkpt lat="22.491850" lon="103.978737">
<ele>93.2</ele>
<time>2011-04-22T01:35:00Z</time>
<desc>lat.=22.491850, lon.=103.978737, Alt.=90.817444m. Speed=0.072000m/h.</desc>
<speed>0.020000</speed>
</trkpt>
<trkpt lat="22.492228" lon="103.978439">
<ele>94.5</ele>
<time>2011-04-22T01:35:55Z</time>
<desc>lat.=22.492228, lon.=103.978439, Alt.=93.124084m. Speed=5.940000m/h.</desc>
<speed>1.650000</speed>
</trkpt>
<trkpt lat="22.491917" lon="103.977776">
<ele>91.3</ele>
<time>2011-04-22T01:37:10Z</time>
<desc>lat.=22.491917, lon.=103.977776, Alt.=90.579163m. Speed=9.576000m/h.</desc>
<speed>2.660000</speed>
</trkpt>
<trkpt lat="22.491709" lon="103.977852">
<ele>93.7</ele>
<time>2011-04-22T01:37:20Z</time>
<desc>lat.=22.491709, lon.=103.977852, Alt.=92.061584m. Speed=7.884000m/h.</desc>
<speed>2.190000</speed>
</trkpt>
<trkpt lat="22.491665" lon="103.978310">
<ele>96.0</ele>
<time>2011-04-22T01:37:40Z</time>
<desc>lat.=22.491665, lon.=103.978310, Alt.=97.042053m. Speed=4.032000m/h.</desc>
<speed>1.120000</speed>
</trkpt>
<trkpt lat="22.491287" lon="103.977806">
<ele>96.5</ele>
<time>2011-04-22T01:38:10Z</time>
<desc>lat.=22.491287, lon.=103.977806, Alt.=96.045959m. Speed=15.804000m/h.</desc>
<speed>4.390000</speed>
</trkpt>
<trkpt lat="22.488123" lon="103.979599">
<ele>87.4</ele>
<time>2011-04-22T01:39:15Z</time>
<desc>lat.=22.488123, lon.=103.979599, Alt.=97.055725m. Speed=21.888000m/h.</desc>
<speed>6.080000</speed>
</trkpt>
<trkpt lat="22.487627" lon="103.979744">
<ele>86.4</ele>
<time>2011-04-22T01:39:25Z</time>
<desc>lat.=22.487627, lon.=103.979744, Alt.=98.651428m. Speed=17.712000m/h.</desc>
<speed>4.920000</speed>
</trkpt>
<trkpt lat="22.487165" lon="103.979652">
<ele>87.1</ele>
<time>2011-04-22T01:39:35Z</time>
<desc>lat.=22.487165, lon.=103.979652, Alt.=97.782288m. Speed=18.035999m/h.</desc>
<speed>5.010000</speed>
</trkpt>
<trkpt lat="22.481586" lon="103.975807">
<ele>96.5</ele>
<time>2011-04-22T01:41:40Z</time>
<desc>lat.=22.481586, lon.=103.975807, Alt.=93.221741m. Speed=22.247999m/h.</desc>
<speed>6.180000</speed>
</trkpt>
<trkpt lat="22.481379" lon="103.975639">
<ele>92.8</ele>
<time>2011-04-22T01:41:45Z</time>
<desc>lat.=22.481379, lon.=103.975639, Alt.=93.467834m. Speed=18.792000m/h.</desc>
<speed>5.220000</speed>
</trkpt>
<trkpt lat="22.481247" lon="103.975182">
<ele>90.9</ele>
<time>2011-04-22T01:41:55Z</time>
<desc>lat.=22.481247, lon.=103.975182, Alt.=93.473694m. Speed=17.100000m/h.</desc>
<speed>4.750000</speed>
</trkpt>
<trkpt lat="22.480722" lon="103.974876">
<ele>89.2</ele>
<time>2011-04-22T01:42:10Z</time>
<desc>lat.=22.480722, lon.=103.974876, Alt.=92.252991m. Speed=17.496000m/h.</desc>
<speed>4.860000</speed>
</trkpt>
<trkpt lat="22.480558" lon="103.974541">
<ele>93.2</ele>
<time>2011-04-22T01:42:20Z</time>
<desc>lat.=22.480558, lon.=103.974541, Alt.=92.178772m. Speed=10.764000m/h.</desc>
<speed>2.990000</speed>
</trkpt>
<trkpt lat="22.480612" lon="103.974411">
<ele>93.6</ele>
<time>2011-04-22T01:42:35Z</time>
<desc>lat.=22.480612, lon.=103.974411, Alt.=93.784241m. Speed=9.720000m/h.</desc>
<speed>2.700000</speed>
</trkpt>
<trkpt lat="22.480968" lon="103.974358">
<ele>92.9</ele>
<time>2011-04-22T01:42:55Z</time>
<desc>lat.=22.480968, lon.=103.974358, Alt.=95.731506m. Speed=9.036000m/h.</desc>
<speed>2.510000</speed>
</trkpt>
<trkpt lat="22.481455" lon="103.974594">
<ele>95.1</ele>
<time>2011-04-22T01:43:10Z</time>
<desc>lat.=22.481455, lon.=103.974594, Alt.=101.479553m. Speed=12.240000m/h.</desc>
<speed>3.400000</speed>
</trkpt>
<trkpt lat="22.481653" lon="103.974419">
<ele>98.9</ele>
<time>2011-04-22T01:43:40Z</time>
<desc>lat.=22.481653, lon.=103.974419, Alt.=100.815491m. Speed=7.020000m/h.</desc>
<speed>1.950000</speed>
</trkpt>
<trkpt lat="22.481180" lon="103.974930">
<ele>91.4</ele>
<time>2011-04-22T01:44:00Z</time>
<desc>lat.=22.481180, lon.=103.974930, Alt.=95.686584m. Speed=13.140000m/h.</desc>
<speed>3.650000</speed>
</trkpt>
<trkpt lat="22.480633" lon="103.975204">
<ele>88.8</ele>
<time>2011-04-22T01:44:15Z</time>
<desc>lat.=22.480633, lon.=103.975204, Alt.=91.448303m. Speed=19.403999m/h.</desc>
<speed>5.390000</speed>
</trkpt>
<trkpt lat="22.480450" lon="103.975662">
<ele>89.5</ele>
<time>2011-04-22T01:44:25Z</time>
<desc>lat.=22.480450, lon.=103.975662, Alt.=88.989319m. Speed=17.604000m/h.</desc>
<speed>4.890000</speed>
</trkpt>
<trkpt lat="22.479794" lon="103.976357">
<ele>82.5</ele>
<time>2011-04-22T01:45:00Z</time>
<desc>lat.=22.479794, lon.=103.976357, Alt.=88.473694m. Speed=1.044000m/h.</desc>
<speed>0.290000</speed>
</trkpt>
<trkpt lat="22.480354" lon="103.975746">
<ele>90.5</ele>
<time>2011-04-22T01:45:25Z</time>
<desc>lat.=22.480354, lon.=103.975746, Alt.=87.270569m. Speed=15.120000m/h.</desc>
<speed>4.200000</speed>
</trkpt>
<trkpt lat="22.480223" lon="103.975441">
<ele>92.4</ele>
<time>2011-04-22T01:45:35Z</time>
<desc>lat.=22.480223, lon.=103.975441, Alt.=86.813538m. Speed=11.772000m/h.</desc>
<speed>3.270000</speed>
</trkpt>
<trkpt lat="22.477066" lon="103.975510">
<ele>89.4</ele>
<time>2011-04-22T01:46:40Z</time>
<desc>lat.=22.477066, lon.=103.975510, Alt.=85.376038m. Speed=19.872000m/h.</desc>
<speed>5.520000</speed>
</trkpt>
<trkpt lat="22.476612" lon="103.975357">
<ele>90.7</ele>
<time>2011-04-22T01:46:50Z</time>
<desc>lat.=22.476612, lon.=103.975357, Alt.=86.438538m. Speed=18.756001m/h.</desc>
<speed>5.210000</speed>
</trkpt>
<trkpt lat="22.475729" lon="103.974541">
<ele>93.0</ele>
<time>2011-04-22T01:47:20Z</time>
<desc>lat.=22.475729, lon.=103.974541, Alt.=89.645569m. Speed=10.800000m/h.</desc>
<speed>3.000000</speed>
</trkpt>
<trkpt lat="22.475166" lon="103.973320">
<ele>88.9</ele>
<time>2011-04-22T01:48:45Z</time>
<desc>lat.=22.475166, lon.=103.973320, Alt.=87.321350m. Speed=13.032000m/h.</desc>
<speed>3.620000</speed>
</trkpt>
<trkpt lat="22.473921" lon="103.972862">
<ele>87.2</ele>
<time>2011-04-22T01:49:15Z</time>
<desc>lat.=22.473921, lon.=103.972862, Alt.=92.501038m. Speed=18.756001m/h.</desc>
<speed>5.210000</speed>
</trkpt>
<trkpt lat="22.473421" lon="103.972351">
<ele>83.7</ele>
<time>2011-04-22T01:49:30Z</time>
<desc>lat.=22.473421, lon.=103.972351, Alt.=93.456116m. Speed=17.892000m/h.</desc>
<speed>4.970000</speed>
</trkpt>
<trkpt lat="22.472773" lon="103.970253">
<ele>89.7</ele>
<time>2011-04-22T01:50:10Z</time>
<desc>lat.=22.472773, lon.=103.970253, Alt.=92.467834m. Speed=17.820000m/h.</desc>
<speed>4.950000</speed>
</trkpt>
<trkpt lat="22.472834" lon="103.969788">
<ele>91.9</ele>
<time>2011-04-22T01:50:20Z</time>
<desc>lat.=22.472834, lon.=103.969788, Alt.=91.219788m. Speed=18.864000m/h.</desc>
<speed>5.240000</speed>
</trkpt>
<trkpt lat="22.473751" lon="103.969276">
<ele>94.4</ele>
<time>2011-04-22T01:50:40Z</time>
<desc>lat.=22.473751, lon.=103.969276, Alt.=94.969788m. Speed=21.672001m/h.</desc>
<speed>6.020000</speed>
</trkpt>
<trkpt lat="22.474562" lon="103.969032">
<ele>100.3</ele>
<time>2011-04-22T01:50:55Z</time>
<desc>lat.=22.474562, lon.=103.969032, Alt.=94.741272m. Speed=23.364000m/h.</desc>
<speed>6.490000</speed>
</trkpt>
<trkpt lat="22.474995" lon="103.968636">
<ele>92.8</ele>
<time>2011-04-22T01:51:05Z</time>
<desc>lat.=22.474995, lon.=103.968636, Alt.=91.502991m. Speed=22.427999m/h.</desc>
<speed>6.230000</speed>
</trkpt>
<trkpt lat="22.475050" lon="103.968056">
<ele>86.9</ele>
<time>2011-04-22T01:51:15Z</time>
<desc>lat.=22.475050, lon.=103.968056, Alt.=91.090881m. Speed=23.112000m/h.</desc>
<speed>6.420000</speed>
</trkpt>
<trkpt lat="22.474806" lon="103.967224">
<ele>86.0</ele>
<time>2011-04-22T01:51:30Z</time>
<desc>lat.=22.474806, lon.=103.967224, Alt.=89.219788m. Speed=20.771999m/h.</desc>
<speed>5.770000</speed>
</trkpt>
<trkpt lat="22.473745" lon="103.965843">
<ele>85.4</ele>
<time>2011-04-22T01:52:00Z</time>
<desc>lat.=22.473745, lon.=103.965843, Alt.=88.454163m. Speed=23.615999m/h.</desc>
<speed>6.560000</speed>
</trkpt>
<trkpt lat="22.472382" lon="103.965515">
<ele>82.9</ele>
<time>2011-04-22T01:52:25Z</time>
<desc>lat.=22.472382, lon.=103.965515, Alt.=87.565491m. Speed=22.608000m/h.</desc>
<speed>6.280000</speed>
</trkpt>
<trkpt lat="22.471186" lon="103.964096">
<ele>88.1</ele>
<time>2011-04-22T01:53:00Z</time>
<desc>lat.=22.471186, lon.=103.964096, Alt.=89.030334m. Speed=15.444000m/h.</desc>
<speed>4.290000</speed>
</trkpt>
<trkpt lat="22.470293" lon="103.963600">
<ele>94.9</ele>
<time>2011-04-22T01:53:25Z</time>
<desc>lat.=22.470293, lon.=103.963600, Alt.=92.528381m. Speed=18.288000m/h.</desc>
<speed>5.080000</speed>
</trkpt>
<trkpt lat="22.469173" lon="103.961700">
<ele>85.4</ele>
<time>2011-04-22T01:53:55Z</time>
<desc>lat.=22.469173, lon.=103.961700, Alt.=87.247131m. Speed=27.576000m/h.</desc>
<speed>7.660000</speed>
</trkpt>
<trkpt lat="22.468870" lon="103.961601">
<ele>83.6</ele>
<time>2011-04-22T01:54:00Z</time>
<desc>lat.=22.468870, lon.=103.961601, Alt.=87.835022m. Speed=24.408001m/h.</desc>
<speed>6.780000</speed>
</trkpt>
<trkpt lat="22.468321" lon="103.961792">
<ele>86.9</ele>
<time>2011-04-22T01:54:10Z</time>
<desc>lat.=22.468321, lon.=103.961792, Alt.=88.823303m. Speed=23.292000m/h.</desc>
<speed>6.470000</speed>
</trkpt>
<trkpt lat="22.467588" lon="103.962585">
<ele>91.9</ele>
<time>2011-04-22T01:54:30Z</time>
<desc>lat.=22.467588, lon.=103.962585, Alt.=88.961975m. Speed=21.024000m/h.</desc>
<speed>5.840000</speed>
</trkpt>
<trkpt lat="22.467173" lon="103.963387">
<ele>93.8</ele>
<time>2011-04-22T01:54:45Z</time>
<desc>lat.=22.467173, lon.=103.963387, Alt.=90.335022m. Speed=19.764000m/h.</desc>
<speed>5.490000</speed>
</trkpt>
<trkpt lat="22.466503" lon="103.963707">
<ele>87.8</ele>
<time>2011-04-22T01:55:00Z</time>
<desc>lat.=22.466503, lon.=103.963707, Alt.=89.719788m. Speed=21.348000m/h.</desc>
<speed>5.930000</speed>
</trkpt>
<trkpt lat="22.465885" lon="103.962791">
<ele>90.3</ele>
<time>2011-04-22T01:55:20Z</time>
<desc>lat.=22.465885, lon.=103.962791, Alt.=90.469788m. Speed=23.004000m/h.</desc>
<speed>6.390000</speed>
</trkpt>
<trkpt lat="22.464388" lon="103.961662">
<ele>84.6</ele>
<time>2011-04-22T01:57:35Z</time>
<desc>lat.=22.464388, lon.=103.961662, Alt.=88.555725m. Speed=20.160000m/h.</desc>
<speed>5.600000</speed>
</trkpt>
<trkpt lat="22.462946" lon="103.961884">
<ele>88.8</ele>
<time>2011-04-22T01:57:55Z</time>
<desc>lat.=22.462946, lon.=103.961884, Alt.=87.954163m. Speed=30.059999m/h.</desc>
<speed>8.350000</speed>
</trkpt>
<trkpt lat="22.461298" lon="103.962723">
<ele>94.3</ele>
<time>2011-04-22T01:58:20Z</time>
<desc>lat.=22.461298, lon.=103.962723, Alt.=92.278381m. Speed=22.212000m/h.</desc>
<speed>6.170000</speed>
</trkpt>
<trkpt lat="22.461054" lon="103.962685">
<ele>96.1</ele>
<time>2011-04-22T01:58:25Z</time>
<desc>lat.=22.461054, lon.=103.962685, Alt.=93.069397m. Speed=18.936001m/h.</desc>
<speed>5.260000</speed>
</trkpt>
<trkpt lat="22.460032" lon="103.961937">
<ele>99.5</ele>
<time>2011-04-22T01:59:00Z</time>
<desc>lat.=22.460032, lon.=103.961937, Alt.=98.938538m. Speed=12.492000m/h.</desc>
<speed>3.470000</speed>
</trkpt>
<trkpt lat="22.459518" lon="103.960991">
<ele>96.7</ele>
<time>2011-04-22T01:59:20Z</time>
<desc>lat.=22.459518, lon.=103.960991, Alt.=94.360413m. Speed=25.452000m/h.</desc>
<speed>7.070000</speed>
</trkpt>
<trkpt lat="22.458757" lon="103.960335">
<ele>89.8</ele>
<time>2011-04-22T01:59:35Z</time>
<desc>lat.=22.458757, lon.=103.960335, Alt.=91.409241m. Speed=22.896000m/h.</desc>
<speed>6.360000</speed>
</trkpt>
<trkpt lat="22.457907" lon="103.958000">
<ele>96.5</ele>
<time>2011-04-22T02:04:55Z</time>
<desc>lat.=22.457907, lon.=103.958000, Alt.=94.163147m. Speed=12.240000m/h.</desc>
<speed>3.400000</speed>
</trkpt>
<trkpt lat="22.457336" lon="103.957504">
<ele>99.8</ele>
<time>2011-04-22T02:05:15Z</time>
<desc>lat.=22.457336, lon.=103.957504, Alt.=93.606506m. Speed=17.532000m/h.</desc>
<speed>4.870000</speed>
</trkpt>
<trkpt lat="22.457026" lon="103.956879">
<ele>100.8</ele>
<time>2011-04-22T02:05:30Z</time>
<desc>lat.=22.457026, lon.=103.956879, Alt.=93.495178m. Speed=17.351999m/h.</desc>
<speed>4.820000</speed>
</trkpt>
<trkpt lat="22.457186" lon="103.955391">
<ele>95.8</ele>
<time>2011-04-22T02:05:55Z</time>
<desc>lat.=22.457186, lon.=103.955391, Alt.=90.995178m. Speed=22.500000m/h.</desc>
<speed>6.250000</speed>
</trkpt>
<trkpt lat="22.457808" lon="103.954300">
<ele>102.0</ele>
<time>2011-04-22T02:06:20Z</time>
<desc>lat.=22.457808, lon.=103.954300, Alt.=97.922913m. Speed=15.480000m/h.</desc>
<speed>4.300000</speed>
</trkpt>
<trkpt lat="22.457634" lon="103.952911">
<ele>104.5</ele>
<time>2011-04-22T02:06:55Z</time>
<desc>lat.=22.457634, lon.=103.952911, Alt.=106.852600m. Speed=13.104000m/h.</desc>
<speed>3.640000</speed>
</trkpt>
<trkpt lat="22.458775" lon="103.951904">
<ele>115.3</ele>
<time>2011-04-22T02:07:45Z</time>
<desc>lat.=22.458775, lon.=103.951904, Alt.=122.360413m. Speed=10.620000m/h.</desc>
<speed>2.950000</speed>
</trkpt>
<trkpt lat="22.459663" lon="103.950821">
<ele>125.5</ele>
<time>2011-04-22T02:08:35Z</time>
<desc>lat.=22.459663, lon.=103.950821, Alt.=133.330200m. Speed=12.528000m/h.</desc>
<speed>3.480000</speed>
</trkpt>
<trkpt lat="22.459984" lon="103.949989">
<ele>121.9</ele>
<time>2011-04-22T02:08:55Z</time>
<desc>lat.=22.459984, lon.=103.949989, Alt.=130.388794m. Speed=20.988001m/h.</desc>
<speed>5.830000</speed>
</trkpt>
<trkpt lat="22.461338" lon="103.948219">
<ele>109.1</ele>
<time>2011-04-22T02:09:25Z</time>
<desc>lat.=22.461338, lon.=103.948219, Alt.=122.747131m. Speed=31.500000m/h.</desc>
<speed>8.750000</speed>
</trkpt>
<trkpt lat="22.461927" lon="103.947800">
<ele>110.3</ele>
<time>2011-04-22T02:09:35Z</time>
<desc>lat.=22.461927, lon.=103.947800, Alt.=122.069397m. Speed=24.695999m/h.</desc>
<speed>6.860000</speed>
</trkpt>
<trkpt lat="22.463903" lon="103.947159">
<ele>107.8</ele>
<time>2011-04-22T02:10:10Z</time>
<desc>lat.=22.463903, lon.=103.947159, Alt.=111.786194m. Speed=20.520000m/h.</desc>
<speed>5.700000</speed>
</trkpt>
<trkpt lat="22.465212" lon="103.943970">
<ele>106.0</ele>
<time>2011-04-22T02:11:10Z</time>
<desc>lat.=22.465212, lon.=103.943970, Alt.=105.514709m. Speed=22.247999m/h.</desc>
<speed>6.180000</speed>
</trkpt>
<trkpt lat="22.465214" lon="103.943321">
<ele>99.8</ele>
<time>2011-04-22T02:11:20Z</time>
<desc>lat.=22.465214, lon.=103.943321, Alt.=104.336975m. Speed=25.271999m/h.</desc>
<speed>7.020000</speed>
</trkpt>
<trkpt lat="22.463890" lon="103.941666">
<ele>104.0</ele>
<time>2011-04-22T02:12:00Z</time>
<desc>lat.=22.463890, lon.=103.941666, Alt.=101.733459m. Speed=15.840000m/h.</desc>
<speed>4.400000</speed>
</trkpt>
<trkpt lat="22.461828" lon="103.942947">
<ele>119.1</ele>
<time>2011-04-22T02:13:30Z</time>
<desc>lat.=22.461828, lon.=103.942947, Alt.=121.688538m. Speed=9.000000m/h.</desc>
<speed>2.500000</speed>
</trkpt>
<trkpt lat="22.461233" lon="103.942886">
<ele>124.8</ele>
<time>2011-04-22T02:14:00Z</time>
<desc>lat.=22.461233, lon.=103.942886, Alt.=125.872131m. Speed=6.372000m/h.</desc>
<speed>1.770000</speed>
</trkpt>
<trkpt lat="22.460691" lon="103.942192">
<ele>131.3</ele>
<time>2011-04-22T02:15:05Z</time>
<desc>lat.=22.460691, lon.=103.942192, Alt.=132.896606m. Speed=6.408000m/h.</desc>
<speed>1.780000</speed>
</trkpt>
<trkpt lat="22.460466" lon="103.941475">
<ele>135.4</ele>
<time>2011-04-22T02:15:50Z</time>
<desc>lat.=22.460466, lon.=103.941475, Alt.=136.974731m. Speed=6.552000m/h.</desc>
<speed>1.820000</speed>
</trkpt>
<trkpt lat="22.459743" lon="103.941452">
<ele>139.0</ele>
<time>2011-04-22T02:16:45Z</time>
<desc>lat.=22.459743, lon.=103.941452, Alt.=142.595825m. Speed=4.428000m/h.</desc>
<speed>1.230000</speed>
</trkpt>
<trkpt lat="22.459488" lon="103.941284">
<ele>148.9</ele>
<time>2011-04-22T02:17:05Z</time>
<desc>lat.=22.459488, lon.=103.941284, Alt.=144.732544m. Speed=6.048000m/h.</desc>
<speed>1.680000</speed>
</trkpt>
<trkpt lat="22.459650" lon="103.940094">
<ele>159.2</ele>
<time>2011-04-22T02:19:00Z</time>
<desc>lat.=22.459650, lon.=103.940094, Alt.=156.173950m. Speed=0.828000m/h.</desc>
<speed>0.230000</speed>
</trkpt>
<trkpt lat="22.459501" lon="103.939186">
<ele>164.8</ele>
<time>2011-04-22T02:23:40Z</time>
<desc>lat.=22.459501, lon.=103.939186, Alt.=163.502075m. Speed=9.324000m/h.</desc>
<speed>2.590000</speed>
</trkpt>
<trkpt lat="22.459251" lon="103.939102">
<ele>169.6</ele>
<time>2011-04-22T02:23:50Z</time>
<desc>lat.=22.459251, lon.=103.939102, Alt.=164.802856m. Speed=10.944000m/h.</desc>
<speed>3.040000</speed>
</trkpt>
<trkpt lat="22.458227" lon="103.939430">
<ele>174.7</ele>
<time>2011-04-22T02:24:30Z</time>
<desc>lat.=22.458227, lon.=103.939430, Alt.=176.947388m. Speed=12.600000m/h.</desc>
<speed>3.500000</speed>
</trkpt>
<trkpt lat="22.457878" lon="103.939186">
<ele>174.2</ele>
<time>2011-04-22T02:24:45Z</time>
<desc>lat.=22.457878, lon.=103.939186, Alt.=178.736450m. Speed=10.908000m/h.</desc>
<speed>3.030000</speed>
</trkpt>
<trkpt lat="22.457861" lon="103.938820">
<ele>180.6</ele>
<time>2011-04-22T02:25:00Z</time>
<desc>lat.=22.457861, lon.=103.938820, Alt.=180.927856m. Speed=9.540000m/h.</desc>
<speed>2.650000</speed>
</trkpt>
<trkpt lat="22.458401" lon="103.937759">
<ele>201.5</ele>
<time>2011-04-22T02:25:50Z</time>
<desc>lat.=22.458401, lon.=103.937759, Alt.=197.338013m. Speed=8.784000m/h.</desc>
<speed>2.440000</speed>
</trkpt>
<trkpt lat="22.458351" lon="103.937439">
<ele>199.4</ele>
<time>2011-04-22T02:26:10Z</time>
<desc>lat.=22.458351, lon.=103.937439, Alt.=201.814575m. Speed=0.972000m/h.</desc>
<speed>0.270000</speed>
</trkpt>
<trkpt lat="22.458096" lon="103.937386">
<ele>206.8</ele>
<time>2011-04-22T02:26:25Z</time>
<desc>lat.=22.458096, lon.=103.937386, Alt.=201.345825m. Speed=8.856000m/h.</desc>
<speed>2.460000</speed>
</trkpt>
<trkpt lat="22.457359" lon="103.937714">
<ele>201.5</ele>
<time>2011-04-22T02:27:45Z</time>
<desc>lat.=22.457359, lon.=103.937714, Alt.=202.451294m. Speed=9.360000m/h.</desc>
<speed>2.600000</speed>
</trkpt>
<trkpt lat="22.456253" lon="103.937500">
<ele>204.4</ele>
<time>2011-04-22T02:28:35Z</time>
<desc>lat.=22.456253, lon.=103.937500, Alt.=206.302856m. Speed=2.232000m/h.</desc>
<speed>0.620000</speed>
</trkpt>
<trkpt lat="22.455841" lon="103.937080">
<ele>209.0</ele>
<time>2011-04-22T02:35:45Z</time>
<desc>lat.=22.455841, lon.=103.937080, Alt.=209.798950m. Speed=9.612000m/h.</desc>
<speed>2.670000</speed>
</trkpt>
<trkpt lat="22.455103" lon="103.937233">
<ele>217.2</ele>
<time>2011-04-22T02:36:20Z</time>
<desc>lat.=22.455103, lon.=103.937233, Alt.=216.568481m. Speed=8.136000m/h.</desc>
<speed>2.260000</speed>
</trkpt>
<trkpt lat="22.454956" lon="103.936646">
<ele>223.3</ele>
<time>2011-04-22T02:36:50Z</time>
<desc>lat.=22.454956, lon.=103.936646, Alt.=221.380981m. Speed=7.740000m/h.</desc>
<speed>2.150000</speed>
</trkpt>
<trkpt lat="22.455126" lon="103.936058">
<ele>230.7</ele>
<time>2011-04-22T02:37:15Z</time>
<desc>lat.=22.455126, lon.=103.936058, Alt.=229.338013m. Speed=9.144000m/h.</desc>
<speed>2.540000</speed>
</trkpt>
<trkpt lat="22.454931" lon="103.935814">
<ele>233.6</ele>
<time>2011-04-22T02:37:30Z</time>
<desc>lat.=22.454931, lon.=103.935814, Alt.=232.275513m. Speed=8.136000m/h.</desc>
<speed>2.260000</speed>
</trkpt>
<trkpt lat="22.454718" lon="103.935905">
<ele>241.6</ele>
<time>2011-04-22T02:37:40Z</time>
<desc>lat.=22.454718, lon.=103.935905, Alt.=234.216919m. Speed=9.144000m/h.</desc>
<speed>2.540000</speed>
</trkpt>
<trkpt lat="22.454214" lon="103.936745">
<ele>235.6</ele>
<time>2011-04-22T02:38:20Z</time>
<desc>lat.=22.454214, lon.=103.936745, Alt.=249.060669m. Speed=8.856000m/h.</desc>
<speed>2.460000</speed>
</trkpt>
<trkpt lat="22.453905" lon="103.936707">
<ele>239.7</ele>
<time>2011-04-22T02:38:35Z</time>
<desc>lat.=22.453905, lon.=103.936707, Alt.=248.455200m. Speed=9.324000m/h.</desc>
<speed>2.590000</speed>
</trkpt>
<trkpt lat="22.453730" lon="103.935875">
<ele>245.2</ele>
<time>2011-04-22T02:41:30Z</time>
<desc>lat.=22.453730, lon.=103.935875, Alt.=250.767700m. Speed=4.212000m/h.</desc>
<speed>1.170000</speed>
</trkpt>
<trkpt lat="22.453442" lon="103.935356">
<ele>239.7</ele>
<time>2011-04-22T02:48:35Z</time>
<desc>lat.=22.453442, lon.=103.935356, Alt.=252.888794m. Speed=0.468000m/h.</desc>
<speed>0.130000</speed>
</trkpt>
<trkpt lat="22.453653" lon="103.933197">
<ele>265.4</ele>
<time>2011-04-22T02:50:45Z</time>
<desc>lat.=22.453653, lon.=103.933197, Alt.=271.691650m. Speed=6.876000m/h.</desc>
<speed>1.910000</speed>
</trkpt>
<trkpt lat="22.453468" lon="103.932785">
<ele>268.9</ele>
<time>2011-04-22T02:51:05Z</time>
<desc>lat.=22.453468, lon.=103.932785, Alt.=270.933838m. Speed=10.872000m/h.</desc>
<speed>3.020000</speed>
</trkpt>
<trkpt lat="22.453251" lon="103.932678">
<ele>273.0</ele>
<time>2011-04-22T02:51:15Z</time>
<desc>lat.=22.453251, lon.=103.932678, Alt.=272.949463m. Speed=9.900000m/h.</desc>
<speed>2.750000</speed>
</trkpt>
<trkpt lat="22.451542" lon="103.932739">
<ele>284.0</ele>
<time>2011-04-22T02:53:00Z</time>
<desc>lat.=22.451542, lon.=103.932739, Alt.=291.316650m. Speed=6.336000m/h.</desc>
<speed>1.760000</speed>
</trkpt>
<trkpt lat="22.451363" lon="103.933052">
<ele>288.5</ele>
<time>2011-04-22T02:53:25Z</time>
<desc>lat.=22.451363, lon.=103.933052, Alt.=297.386963m. Speed=5.940000m/h.</desc>
<speed>1.650000</speed>
</trkpt>
<trkpt lat="22.451401" lon="103.933983">
<ele>286.9</ele>
<time>2011-04-22T02:54:20Z</time>
<desc>lat.=22.451401, lon.=103.933983, Alt.=294.918213m. Speed=5.616000m/h.</desc>
<speed>1.560000</speed>
</trkpt>
<trkpt lat="22.450272" lon="103.934700">
<ele>295.6</ele>
<time>2011-04-22T02:55:40Z</time>
<desc>lat.=22.450272, lon.=103.934700, Alt.=320.879150m. Speed=7.596000m/h.</desc>
<speed>2.110000</speed>
</trkpt>
<trkpt lat="22.449425" lon="103.934418">
<ele>298.8</ele>
<time>2011-04-22T02:56:40Z</time>
<desc>lat.=22.449425, lon.=103.934418, Alt.=334.519775m. Speed=7.308000m/h.</desc>
<speed>2.030000</speed>
</trkpt>
<trkpt lat="22.448786" lon="103.933998">
<ele>307.0</ele>
<time>2011-04-22T02:57:15Z</time>
<desc>lat.=22.448786, lon.=103.933998, Alt.=341.254150m. Speed=8.388000m/h.</desc>
<speed>2.330000</speed>
</trkpt>
<trkpt lat="22.448084" lon="103.934258">
<ele>310.5</ele>
<time>2011-04-22T03:04:10Z</time>
<desc>lat.=22.448084, lon.=103.934258, Alt.=331.926025m. Speed=6.156000m/h.</desc>
<speed>1.710000</speed>
</trkpt>
<trkpt lat="22.447470" lon="103.934662">
<ele>323.6</ele>
<time>2011-04-22T03:04:50Z</time>
<desc>lat.=22.447470, lon.=103.934662, Alt.=353.340088m. Speed=8.532000m/h.</desc>
<speed>2.370000</speed>
</trkpt>
<trkpt lat="22.447266" lon="103.935394">
<ele>323.7</ele>
<time>2011-04-22T03:05:30Z</time>
<desc>lat.=22.447266, lon.=103.935394, Alt.=361.113525m. Speed=8.244000m/h.</desc>
<speed>2.290000</speed>
</trkpt>
<trkpt lat="22.446537" lon="103.935944">
<ele>343.8</ele>
<time>2011-04-22T03:06:15Z</time>
<desc>lat.=22.446537, lon.=103.935944, Alt.=369.308838m. Speed=8.712000m/h.</desc>
<speed>2.420000</speed>
</trkpt>
<trkpt lat="22.446455" lon="103.936371">
<ele>357.7</ele>
<time>2011-04-22T03:06:35Z</time>
<desc>lat.=22.446455, lon.=103.936371, Alt.=345.660400m. Speed=10.224000m/h.</desc>
<speed>2.840000</speed>
</trkpt>
<trkpt lat="22.446712" lon="103.936951">
<ele>350.5</ele>
<time>2011-04-22T03:07:05Z</time>
<desc>lat.=22.446712, lon.=103.936951, Alt.=348.761963m. Speed=9.288000m/h.</desc>
<speed>2.580000</speed>
</trkpt>
<trkpt lat="22.446566" lon="103.937134">
<ele>348.6</ele>
<time>2011-04-22T03:07:15Z</time>
<desc>lat.=22.446566, lon.=103.937134, Alt.=350.488525m. Speed=9.432000m/h.</desc>
<speed>2.620000</speed>
</trkpt>
<trkpt lat="22.445742" lon="103.937309">
<ele>358.1</ele>
<time>2011-04-22T03:08:00Z</time>
<desc>lat.=22.445742, lon.=103.937309, Alt.=360.051025m. Speed=1.584000m/h.</desc>
<speed>0.440000</speed>
</trkpt>
<trkpt lat="22.445639" lon="103.937675">
<ele>344.9</ele>
<time>2011-04-22T03:09:00Z</time>
<desc>lat.=22.445639, lon.=103.937675, Alt.=356.535400m. Speed=0.036000m/h.</desc>
<speed>0.010000</speed>
</trkpt>
<trkpt lat="22.445608" lon="103.937500">
<ele>355.1</ele>
<time>2011-04-22T03:10:15Z</time>
<desc>lat.=22.445608, lon.=103.937500, Alt.=353.965088m. Speed=2.736000m/h.</desc>
<speed>0.760000</speed>
</trkpt>
<trkpt lat="22.444881" lon="103.938026">
<ele>352.9</ele>
<time>2011-04-22T03:21:55Z</time>
<desc>lat.=22.444881, lon.=103.938026, Alt.=350.933838m. Speed=9.288000m/h.</desc>
<speed>2.580000</speed>
</trkpt>
<trkpt lat="22.442654" lon="103.938644">
<ele>376.8</ele>
<time>2011-04-22T03:24:35Z</time>
<desc>lat.=22.442654, lon.=103.938644, Alt.=377.121338m. Speed=5.328000m/h.</desc>
<speed>1.480000</speed>
</trkpt>
<trkpt lat="22.441446" lon="103.938721">
<ele>394.2</ele>
<time>2011-04-22T03:26:05Z</time>
<desc>lat.=22.441446, lon.=103.938721, Alt.=389.308838m. Speed=6.336000m/h.</desc>
<speed>1.760000</speed>
</trkpt>
<trkpt lat="22.440695" lon="103.939117">
<ele>402.2</ele>
<time>2011-04-22T03:27:00Z</time>
<desc>lat.=22.440695, lon.=103.939117, Alt.=392.426025m. Speed=5.832000m/h.</desc>
<speed>1.620000</speed>
</trkpt>
<trkpt lat="22.440310" lon="103.939835">
<ele>405.1</ele>
<time>2011-04-22T03:27:55Z</time>
<desc>lat.=22.440310, lon.=103.939835, Alt.=400.511963m. Speed=5.328000m/h.</desc>
<speed>1.480000</speed>
</trkpt>
<trkpt lat="22.440006" lon="103.939896">
<ele>401.7</ele>
<time>2011-04-22T03:28:20Z</time>
<desc>lat.=22.440006, lon.=103.939896, Alt.=402.761963m. Speed=5.220000m/h.</desc>
<speed>1.450000</speed>
</trkpt>
<trkpt lat="22.439911" lon="103.939491">
<ele>401.9</ele>
<time>2011-04-22T03:28:50Z</time>
<desc>lat.=22.439911, lon.=103.939491, Alt.=399.551025m. Speed=5.148000m/h.</desc>
<speed>1.430000</speed>
</trkpt>
<trkpt lat="22.440306" lon="103.938042">
<ele>420.0</ele>
<time>2011-04-22T03:30:40Z</time>
<desc>lat.=22.440306, lon.=103.938042, Alt.=415.636963m. Speed=5.220000m/h.</desc>
<speed>1.450000</speed>
</trkpt>
<trkpt lat="22.440357" lon="103.936577">
<ele>428.5</ele>
<time>2011-04-22T03:32:20Z</time>
<desc>lat.=22.440357, lon.=103.936577, Alt.=422.105713m. Speed=5.940000m/h.</desc>
<speed>1.650000</speed>
</trkpt>
<trkpt lat="22.440918" lon="103.935066">
<ele>447.8</ele>
<time>2011-04-22T03:40:10Z</time>
<desc>lat.=22.440918, lon.=103.935066, Alt.=435.090088m. Speed=6.516000m/h.</desc>
<speed>1.810000</speed>
</trkpt>
<trkpt lat="22.440950" lon="103.934616">
<ele>445.9</ele>
<time>2011-04-22T03:40:40Z</time>
<desc>lat.=22.440950, lon.=103.934616, Alt.=438.316650m. Speed=5.724000m/h.</desc>
<speed>1.590000</speed>
</trkpt>
<trkpt lat="22.440790" lon="103.934341">
<ele>445.0</ele>
<time>2011-04-22T03:41:00Z</time>
<desc>lat.=22.440790, lon.=103.934341, Alt.=436.769775m. Speed=6.048000m/h.</desc>
<speed>1.680000</speed>
</trkpt>
<trkpt lat="22.439774" lon="103.934059">
<ele>431.1</ele>
<time>2011-04-22T03:42:20Z</time>
<desc>lat.=22.439774, lon.=103.934059, Alt.=446.488525m. Speed=2.376000m/h.</desc>
<speed>0.660000</speed>
</trkpt>
<trkpt lat="22.439480" lon="103.933372">
<ele>449.9</ele>
<time>2011-04-22T03:42:45Z</time>
<desc>lat.=22.439480, lon.=103.933372, Alt.=448.191650m. Speed=18.540001m/h.</desc>
<speed>5.150000</speed>
</trkpt>
<trkpt lat="22.438931" lon="103.932800">
<ele>447.0</ele>
<time>2011-04-22T03:43:00Z</time>
<desc>lat.=22.438931, lon.=103.932800, Alt.=446.504150m. Speed=23.472000m/h.</desc>
<speed>6.520000</speed>
</trkpt>
<trkpt lat="22.438387" lon="103.931534">
<ele>462.2</ele>
<time>2011-04-22T03:43:45Z</time>
<desc>lat.=22.438387, lon.=103.931534, Alt.=459.535400m. Speed=7.956000m/h.</desc>
<speed>2.210000</speed>
</trkpt>
<trkpt lat="22.437719" lon="103.931061">
<ele>466.4</ele>
<time>2011-04-22T03:44:30Z</time>
<desc>lat.=22.437719, lon.=103.931061, Alt.=464.511963m. Speed=7.488000m/h.</desc>
<speed>2.080000</speed>
</trkpt>
<trkpt lat="22.438343" lon="103.930199">
<ele>488.6</ele>
<time>2011-04-22T03:48:30Z</time>
<desc>lat.=22.438343, lon.=103.930199, Alt.=497.801025m. Speed=0.900000m/h.</desc>
<speed>0.250000</speed>
</trkpt>
<trkpt lat="22.438089" lon="103.930237">
<ele>477.2</ele>
<time>2011-04-22T03:49:20Z</time>
<desc>lat.=22.438089, lon.=103.930237, Alt.=513.805176m. Speed=0.720000m/h.</desc>
<speed>0.200000</speed>
</trkpt>
<trkpt lat="22.438292" lon="103.930336">
<ele>488.2</ele>
<time>2011-04-22T03:50:55Z</time>
<desc>lat.=22.438292, lon.=103.930336, Alt.=515.320801m. Speed=0.396000m/h.</desc>
<speed>0.110000</speed>
</trkpt>
<trkpt lat="22.438175" lon="103.930206">
<ele>479.5</ele>
<time>2011-04-22T03:53:15Z</time>
<desc>lat.=22.438175, lon.=103.930206, Alt.=503.543213m. Speed=0.036000m/h.</desc>
<speed>0.010000</speed>
</trkpt>
<trkpt lat="22.438324" lon="103.930084">
<ele>487.3</ele>
<time>2011-04-22T03:54:05Z</time>
<desc>lat.=22.438324, lon.=103.930084, Alt.=494.793213m. Speed=5.616000m/h.</desc>
<speed>1.560000</speed>
</trkpt>
<trkpt lat="22.438314" lon="103.929771">
<ele>489.1</ele>
<time>2011-04-22T03:54:30Z</time>
<desc>lat.=22.438314, lon.=103.929771, Alt.=488.355713m. Speed=5.040000m/h.</desc>
<speed>1.400000</speed>
</trkpt>
<trkpt lat="22.436441" lon="103.929283">
<ele>500.1</ele>
<time>2011-04-22T03:57:00Z</time>
<desc>lat.=22.436441, lon.=103.929283, Alt.=497.058838m. Speed=6.912000m/h.</desc>
<speed>1.920000</speed>
</trkpt>
<trkpt lat="22.436438" lon="103.928635">
<ele>509.3</ele>
<time>2011-04-22T03:57:35Z</time>
<desc>lat.=22.436438, lon.=103.928635, Alt.=508.246338m. Speed=7.452000m/h.</desc>
<speed>2.070000</speed>
</trkpt>
<trkpt lat="22.436186" lon="103.927933">
<ele>518.9</ele>
<time>2011-04-22T03:58:15Z</time>
<desc>lat.=22.436186, lon.=103.927933, Alt.=523.086426m. Speed=6.660000m/h.</desc>
<speed>1.850000</speed>
</trkpt>
<trkpt lat="22.436289" lon="103.927185">
<ele>524.6</ele>
<time>2011-04-22T03:59:30Z</time>
<desc>lat.=22.436289, lon.=103.927185, Alt.=527.242676m. Speed=6.408000m/h.</desc>
<speed>1.780000</speed>
</trkpt>
<trkpt lat="22.436831" lon="103.926666">
<ele>534.0</ele>
<time>2011-04-22T04:00:10Z</time>
<desc>lat.=22.436831, lon.=103.926666, Alt.=529.852051m. Speed=7.416000m/h.</desc>
<speed>2.060000</speed>
</trkpt>
<trkpt lat="22.437468" lon="103.926407">
<ele>546.9</ele>
<time>2011-04-22T04:00:45Z</time>
<desc>lat.=22.437468, lon.=103.926407, Alt.=547.242676m. Speed=8.388000m/h.</desc>
<speed>2.330000</speed>
</trkpt>
<trkpt lat="22.438454" lon="103.925278">
<ele>555.3</ele>
<time>2011-04-22T04:03:45Z</time>
<desc>lat.=22.438454, lon.=103.925278, Alt.=542.586426m. Speed=6.120000m/h.</desc>
<speed>1.700000</speed>
</trkpt>
<trkpt lat="22.438648" lon="103.924728">
<ele>558.8</ele>
<time>2011-04-22T04:04:20Z</time>
<desc>lat.=22.438648, lon.=103.924728, Alt.=544.852051m. Speed=5.760000m/h.</desc>
<speed>1.600000</speed>
</trkpt>
<trkpt lat="22.438541" lon="103.924393">
<ele>565.2</ele>
<time>2011-04-22T04:14:40Z</time>
<desc>lat.=22.438541, lon.=103.924393, Alt.=555.477051m. Speed=0.072000m/h.</desc>
<speed>0.020000</speed>
</trkpt>
</trkseg>
</trk>
</gpx>